Time;durP1;ratioP1;P1;durP2;ratioP2;P2;SDS_P1;SDS_P2;PMS_P1;PMS_P2;Temp;Humidity;BMP_temperature;BMP_pressure;BME280_temperature;BME280_humidity;BME280_pressure;Samples;Min_cycle;Max_cycle;Signal;HPM_P1;HPM_P2
2024/02/21 00:02:23;;;;;;;;;;;;;;;12.21;59.31;101730.25;4889562;29;20374;-81
2024/02/21 00:05:15;;;;;;;;;;;;;;;12.25;59.20;101731.25;4873718;29;20382;-81
2024/02/21 00:08:07;;;;;;;;;;;;;;;12.29;58.93;101729.56;4873233;29;19920;-82
2024/02/21 00:10:59;;;;;;;;;;;;;;;12.33;58.55;101731.38;4881044;29;19919;-83
2024/02/21 00:13:51;;;;;;;;;;;;;;;12.27;58.27;101737.22;4873541;29;20682;-84
2024/02/21 00:16:43;;;;;;;;;;;;;;;12.23;58.37;101733.47;4873294;29;19916;-82
2024/02/21 00:19:35;;;;;;;;;;;;;;;12.19;58.10;101737.94;4872993;29;19915;-80
2024/02/21 00:22:31;;;;;;;;;;;;;;;12.17;58.00;101732.75;4873623;29;20382;-82
2024/02/21 00:25:23;;;;;;;;;;;;;;;12.20;57.61;101734.06;4881031;29;19919;-81
2024/02/21 00:28:14;;;;;;;;;;;;;;;12.21;57.49;101736.50;4873084;29;19915;-81
2024/02/21 00:31:06;;;;;;;;;;;;;;;12.10;57.74;101731.53;4868970;29;19916;-82
2024/02/21 00:33:58;;;;;;;;;;;;;;;12.02;58.25;101730.31;4873351;29;19916;-81
2024/02/21 00:36:50;;;;;;;;;;;;;;;12.05;58.41;101720.72;4872912;29;19919;-81
2024/02/21 00:39:42;;;;;;;;;;;;;;;12.09;58.33;101728.00;4880920;29;19923;-81
2024/02/21 00:42:34;;;;;;;;;;;;;;;12.11;58.64;101724.97;4882565;29;19916;-82
2024/02/21 00:45:26;;;;;;;;;;;;;;;12.07;58.77;101718.50;4872866;29;19920;-82
2024/02/21 00:48:18;;;;;;;;;;;;;;;12.00;58.87;101716.97;4872465;29;19920;-81
2024/02/21 00:51:10;;;;;;;;;;;;;;;11.94;59.22;101710.00;4880473;29;20305;-82
2024/02/21 00:54:02;;;;;;;;;;;;;;;11.86;59.61;101702.50;4872810;29;19942;-81
2024/02/21 00:56:51;;;;;;;;;;;;;;;11.84;59.84;101707.44;4872360;29;19916;-82
2024/02/21 00:59:43;;;;;;;;;;;;;;;11.70;60.35;101712.03;4885826;29;19915;-81
2024/02/21 01:02:35;;;;;;;;;;;;;;;11.76;60.91;101708.16;4880032;29;20377;-81
2024/02/21 01:05:27;;;;;;;;;;;;;;;11.81;60.68;101705.34;4879912;29;19924;-81
2024/02/21 01:08:18;;;;;;;;;;;;;;;11.84;60.07;101712.91;4880176;29;19915;-81
2024/02/21 01:11:10;;;;;;;;;;;;;;;11.81;60.00;101707.25;4879991;29;20381;-82
2024/02/21 01:14:02;;;;;;;;;;;;;;;11.72;60.15;101707.09;4879764;29;19916;-82
2024/02/21 01:16:54;;;;;;;;;;;;;;;11.70;60.10;101711.22;4872024;29;19916;-81
2024/02/21 01:19:46;;;;;;;;;;;;;;;11.67;60.92;101703.66;4869272;29;20305;-83
2024/02/21 01:22:38;;;;;;;;;;;;;;;11.57;61.16;101705.44;4867277;29;20321;-83
2024/02/21 01:25:30;;;;;;;;;;;;;;;11.67;61.42;101700.91;4872026;29;19920;-81
2024/02/21 01:28:22;;;;;;;;;;;;;;;11.60;60.71;101698.56;4879414;29;19915;-82
2024/02/21 01:31:11;;;;;;;;;;;;;;;11.54;61.66;101706.00;4867321;29;19916;-81
2024/02/21 01:34:07;;;;;;;;;;;;;;;11.65;61.56;101695.75;4865847;29;19928;-82
2024/02/21 01:36:59;;;;;;;;;;;;;;;11.65;62.04;101706.66;4871539;29;19919;-81
2024/02/21 01:39:51;;;;;;;;;;;;;;;11.62;60.86;101704.53;4879323;29;19916;-81
2024/02/21 01:42:48;;;;;;;;;;;;;;;11.51;60.64;101706.63;4871557;29;19916;-82
2024/02/21 01:45:37;;;;;;;;;;;;;;;11.27;60.56;101708.63;4866538;29;20297;-80
2024/02/21 01:48:29;;;;;;;;;;;;;;;11.19;61.67;101701.13;4869760;29;19915;-81
2024/02/21 01:51:19;;;;;;;;;;;;;;;11.08;62.06;101696.94;4866210;29;19916;-81
2024/02/21 01:54:16;;;;;;;;;;;;;;;11.05;61.35;101701.06;4871304;29;19915;-81
2024/02/21 01:57:05;;;;;;;;;;;;;;;11.09;61.74;101699.34;4868266;29;19920;-81
2024/02/21 01:59:57;;;;;;;;;;;;;;;11.13;61.56;101703.09;4866791;29;19919;-81
2024/02/21 02:02:49;;;;;;;;;;;;;;;11.12;60.71;101693.31;4893547;29;20405;-82
2024/02/21 02:05:41;;;;;;;;;;;;;;;11.17;60.93;101699.81;4886644;29;20397;-82
2024/02/21 02:08:33;;;;;;;;;;;;;;;11.22;59.70;101697.00;4897386;29;20396;-82
2024/02/21 02:11:25;;;;;;;;;;;;;;;11.01;59.39;101691.88;4897711;29;19916;-82
2024/02/21 02:14:17;;;;;;;;;;;;;;;11.10;59.55;101690.09;4897217;29;19919;-81
2024/02/21 02:17:09;;;;;;;;;;;;;;;11.12;59.62;101682.44;4896762;29;20157;-82
2024/02/21 02:20:01;;;;;;;;;;;;;;;11.05;59.41;101692.06;4897267;29;19915;-82
2024/02/21 02:22:51;;;;;;;;;;;;;;;10.90;60.18;101690.38;4885030;29;19915;-82
2024/02/21 02:25:43;;;;;;;;;;;;;;;10.86;60.46;101694.81;4889136;29;19941;-82
2024/02/21 02:28:35;;;;;;;;;;;;;;;10.96;60.53;101693.84;4886332;29;19919;-82
2024/02/21 02:31:27;;;;;;;;;;;;;;;11.05;60.29;101686.63;4897448;29;20377;-82
2024/02/21 02:34:24;;;;;;;;;;;;;;;11.05;59.53;101671.13;4897179;29;19915;-82
2024/02/21 02:37:13;;;;;;;;;;;;;;;11.03;59.07;101669.78;4896589;29;19916;-81
2024/02/21 02:40:08;;;;;;;;;;;;;;;10.90;59.84;101673.25;4896981;29;19919;-81
2024/02/21 02:43:01;;;;;;;;;;;;;;;10.98;59.47;101667.13;4899754;29;19919;-81
2024/02/21 02:45:56;;;;;;;;;;;;;;;10.98;58.44;101661.69;4889308;29;19919;-81
2024/02/21 02:48:48;;;;;;;;;;;;;;;10.88;58.73;101659.94;4901982;29;19923;-82
2024/02/21 02:51:42;;;;;;;;;;;;;;;10.99;58.74;101666.84;4883284;29;19915;-83
2024/02/21 02:54:34;;;;;;;;;;;;;;;11.01;58.22;101669.28;4896961;29;19916;-81
2024/02/21 02:57:26;;;;;;;;;;;;;;;10.85;58.24;101665.97;4886946;29;19916;-81
2024/02/21 03:00:16;;;;;;;;;;;;;;;10.82;58.80;101655.66;4900025;29;19920;-81
2024/02/21 03:03:08;;;;;;;;;;;;;;;10.87;59.46;101669.19;4883569;29;19924;-81
2024/02/21 03:06:00;;;;;;;;;;;;;;;10.85;58.90;101657.00;4886310;29;19919;-81
2024/02/21 03:08:52;;;;;;;;;;;;;;;10.96;57.43;101662.00;4896423;29;19916;-82
2024/02/21 03:11:44;;;;;;;;;;;;;;;11.00;56.77;101668.47;4896216;29;19915;-81
2024/02/21 03:14:35;;;;;;;;;;;;;;;11.04;55.75;101661.31;4896905;29;19915;-81
2024/02/21 03:17:27;;;;;;;;;;;;;;;11.04;54.61;101660.50;4896787;29;19920;-81
2024/02/21 03:20:19;;;;;;;;;;;;;;;11.00;54.74;101668.47;4886577;29;19915;-81
2024/02/21 03:23:11;;;;;;;;;;;;;;;10.77;55.33;101677.50;4896569;29;19915;-81
2024/02/21 03:26:00;;;;;;;;;;;;;;;10.88;54.96;101670.81;4887884;29;19923;-81
2024/02/21 03:28:50;;;;;;;;;;;;;;;10.85;55.24;101686.91;4889551;29;19915;-81
2024/02/21 03:31:42;;;;;;;;;;;;;;;10.94;54.83;101680.53;4886145;29;19919;-80
2024/02/21 03:34:34;;;;;;;;;;;;;;;10.91;54.68;101675.69;4892229;29;19915;-80
2024/02/21 03:37:26;;;;;;;;;;;;;;;10.90;55.21;101684.13;4900275;29;19917;-81
2024/02/21 03:40:18;;;;;;;;;;;;;;;10.72;55.25;101685.72;4900017;29;19924;-80
2024/02/21 03:43:10;;;;;;;;;;;;;;;10.72;55.30;101685.72;4892395;29;19919;-81
2024/02/21 03:46:02;;;;;;;;;;;;;;;10.73;55.62;101687.34;4899932;29;19923;-81
2024/02/21 03:48:51;;;;;;;;;;;;;;;10.70;55.16;101687.94;4899500;29;20305;-81
2024/02/21 03:51:43;;;;;;;;;;;;;;;10.75;55.78;101682.44;4886380;29;20389;-81
2024/02/21 03:54:35;;;;;;;;;;;;;;;10.74;54.97;101683.53;4887391;29;19916;-81
2024/02/21 03:57:27;;;;;;;;;;;;;;;10.87;53.29;101682.78;4891070;29;19938;-80
2024/02/21 04:00:19;;;;;;;;;;;;;;;10.84;52.79;101672.50;4888851;29;19919;-81
2024/02/21 04:03:11;;;;;;;;;;;;;;;10.72;53.14;101677.56;4886454;29;20374;-81
2024/02/21 04:06:03;;;;;;;;;;;;;;;10.71;52.94;101675.97;4891818;29;19919;-81
2024/02/21 04:08:55;;;;;;;;;;;;;;;10.62;52.96;101680.41;4899867;29;19916;-81
2024/02/21 04:11:47;;;;;;;;;;;;;;;10.61;52.93;101679.63;4885154;29;19916;-81
2024/02/21 04:14:39;;;;;;;;;;;;;;;10.70;51.45;101675.16;4891466;29;20304;-81
2024/02/21 04:17:31;;;;;;;;;;;;;;;10.69;51.37;101680.88;4899204;29;19915;-81
2024/02/21 04:20:23;;;;;;;;;;;;;;;10.70;51.32;101685.22;4902506;29;19927;-81
2024/02/21 04:23:15;;;;;;;;;;;;;;;10.69;50.59;101683.59;4899121;29;19923;-82
2024/02/21 04:26:07;;;;;;;;;;;;;;;10.73;50.19;101676.47;4904471;29;19921;-81
2024/02/21 04:28:59;;;;;;;;;;;;;;;10.75;49.65;101676.19;4899357;29;19915;-81
2024/02/21 04:31:52;;;;;;;;;;;;;;;10.83;49.05;101678.22;4898523;29;19916;-81
2024/02/21 04:34:44;;;;;;;;;;;;;;;10.86;48.64;101678.47;4904615;29;19915;-81
2024/02/21 04:37:41;;;;;;;;;;;;;;;10.82;48.61;101673.91;4899762;29;19916;-81
2024/02/21 04:40:33;;;;;;;;;;;;;;;10.86;48.25;101677.66;4898855;29;19915;-81
2024/02/21 04:43:24;;;;;;;;;;;;;;;10.64;48.93;101679.03;4904949;29;20297;-81
2024/02/21 04:46:16;;;;;;;;;;;;;;;10.66;48.67;101678.75;4887869;29;19920;-81
2024/02/21 04:49:08;;;;;;;;;;;;;;;10.62;49.38;101675.78;4898834;29;19915;-81
2024/02/21 04:55:27;;;;;;;;;;;;;;;10.79;47.64;101680.75;5210072;23;19929;-81
2024/02/21 04:58:22;;;;;;;;;;;;;;;10.78;48.00;101687.28;4975366;28;19918;-81
2024/02/21 05:01:11;;;;;;;;;;;;;;;10.80;47.85;101687.00;4947489;28;19914;-82
2024/02/21 05:04:00;;;;;;;;;;;;;;;10.73;47.77;101687.34;4941511;29;19918;-81
2024/02/21 05:06:52;;;;;;;;;;;;;;;10.68;48.13;101699.09;4944368;29;20420;-81
2024/02/21 05:09:44;;;;;;;;;;;;;;;10.73;47.96;101700.94;4954968;28;19947;-80
2024/02/21 05:12:36;;;;;;;;;;;;;;;10.65;47.95;101696.97;4933829;28;19915;-82
2024/02/21 05:15:28;;;;;;;;;;;;;;;10.69;47.75;101700.72;4943482;29;19914;-82
2024/02/21 05:18:20;;;;;;;;;;;;;;;10.69;47.38;101694.47;4933842;29;19918;-82
2024/02/21 05:21:12;;;;;;;;;;;;;;;10.67;47.05;101692.03;4940470;29;19914;-82
2024/02/21 05:24:04;;;;;;;;;;;;;;;10.65;47.00;101669.78;4934880;28;19914;-83
2024/02/21 05:26:56;;;;;;;;;;;;;;;10.65;46.62;101671.69;4942339;28;19918;-81
2024/02/21 05:29:48;;;;;;;;;;;;;;;10.56;46.86;101676.16;4935420;28;19915;-81
2024/02/21 05:32:40;;;;;;;;;;;;;;;10.60;46.50;101675.28;4944611;28;19918;-80
2024/02/21 05:35:32;;;;;;;;;;;;;;;10.54;46.19;101681.06;4932015;28;19914;-81
2024/02/21 05:38:24;;;;;;;;;;;;;;;10.57;46.31;101683.19;4928579;29;19914;-80
2024/02/21 05:41:16;;;;;;;;;;;;;;;10.59;45.56;101679.09;4923481;29;19918;-78
2024/02/21 05:44:08;;;;;;;;;;;;;;;10.56;45.65;101679.69;4933839;29;20385;-81
2024/02/21 05:46:59;;;;;;;;;;;;;;;10.68;46.44;101684.69;4947478;28;19919;-82
2024/02/21 05:49:53;;;;;;;;;;;;;;;10.69;46.18;101681.69;4931820;28;20308;-81
2024/02/21 05:52:45;;;;;;;;;;;;;;;10.77;46.12;101669.31;4930461;29;19915;-81
2024/02/21 05:55:37;;;;;;;;;;;;;;;10.83;46.34;101679.03;4927643;29;19914;-82
2024/02/21 05:58:29;;;;;;;;;;;;;;;10.69;47.44;101680.88;4932217;28;19915;-82
2024/02/21 06:01:21;;;;;;;;;;;;;;;10.60;48.22;101677.19;4954472;28;19914;-82
2024/02/21 06:04:13;;;;;;;;;;;;;;;10.56;49.20;101678.88;4940264;29;19918;-82
2024/02/21 06:07:05;;;;;;;;;;;;;;;10.63;46.45;101676.59;4933145;28;19914;-83
2024/02/21 06:09:57;;;;;;;;;;;;;;;10.62;45.78;101683.13;4942921;28;19922;-83
2024/02/21 06:12:49;;;;;;;;;;;;;;;10.65;45.95;101677.13;4939656;29;19914;-82
2024/02/21 06:15:41;;;;;;;;;;;;;;;10.73;45.69;101679.19;4940233;28;19919;-81
2024/02/21 06:18:33;;;;;;;;;;;;;;;10.67;46.26;101685.78;4933676;29;19918;-82
2024/02/21 06:21:31;;;;;;;;;;;;;;;10.37;49.49;101691.59;4929094;29;19923;-81
2024/02/21 06:24:23;;;;;;;;;;;;;;;10.26;49.69;101699.06;4941343;29;19918;-81
2024/02/21 06:27:15;;;;;;;;;;;;;;;10.33;49.37;101701.44;4946432;28;19914;-81
2024/02/21 06:30:07;;;;;;;;;;;;;;;10.40;50.59;101708.16;4943293;28;20489;-81
2024/02/21 06:32:59;;;;;;;;;;;;;;;10.03;50.74;101708.78;4947912;28;19914;-82
2024/02/21 06:35:51;;;;;;;;;;;;;;;9.70;53.25;101705.00;4926468;29;19915;-82
2024/02/21 06:38:40;;;;;;;;;;;;;;;9.52;52.86;101718.47;4943467;29;19914;-82
2024/02/21 06:41:32;;;;;;;;;;;;;;;9.36;53.57;101706.91;4940333;28;19918;-81
2024/02/21 06:44:22;;;;;;;;;;;;;;;9.14;54.76;101715.50;4960591;28;19918;-82
2024/02/21 06:47:14;;;;;;;;;;;;;;;9.26;56.32;101718.66;4946669;28;19918;-82
2024/02/21 06:50:35;;;;;;;;;;;;;;;8.98;57.42;101719.38;4944277;29;19914;-80
2024/02/21 06:53:27;;;;;;;;;;;;;;;8.63;59.28;101728.50;4896657;29;20321;-80
2024/02/21 06:56:19;;;;;;;;;;;;;;;8.56;60.44;101727.97;4884873;29;19916;-81
2024/02/21 06:59:11;;;;;;;;;;;;;;;8.55;61.13;101724.44;4877559;29;19916;-80
2024/02/21 07:02:03;;;;;;;;;;;;;;;8.65;61.60;101729.03;4859524;29;19916;-80
2024/02/21 07:04:56;;;;;;;;;;;;;;;8.84;62.32;101734.63;4882508;29;19924;-80
2024/02/21 07:07:48;;;;;;;;;;;;;;;8.99;61.88;101734.56;4871813;29;19920;-81
2024/02/21 07:28:16;;;;;;;;;;;;;;;9.92;59.13;101739.06;5803435;23;20588;-81
2024/02/21 07:31:08;;;;;;;;;;;;;;;10.21;58.13;101743.41;4862253;29;19928;-81
2024/02/21 07:34:00;;;;;;;;;;;;;;;10.57;57.15;101743.03;4869410;29;19924;-81
2024/02/21 07:36:52;;;;;;;;;;;;;;;10.72;56.87;101751.00;4860773;29;19916;-81
2024/02/21 07:39:43;;;;;;;;;;;;;;;10.75;56.27;101747.72;4855902;29;19916;-81
2024/02/21 07:42:35;;;;;;;;;;;;;;;10.94;56.07;101755.91;4864279;29;20302;-81
2024/02/21 07:45:27;;;;;;;;;;;;;;;11.11;54.64;101762.50;4850780;29;19920;-81
2024/02/21 07:48:19;;;;;;;;;;;;;;;11.27;53.81;101771.25;4856474;29;19916;-78
2024/02/21 07:51:11;;;;;;;;;;;;;;;11.37;55.47;101771.13;4851775;29;19916;-80
2024/02/21 07:54:03;;;;;;;;;;;;;;;11.55;54.76;101772.19;4849940;29;19920;-81
2024/02/21 07:56:55;;;;;;;;;;;;;;;11.73;54.03;101765.97;4854417;29;19916;-82
2024/02/21 07:59:47;;;;;;;;;;;;;;;11.96;53.13;101767.75;4852017;29;20386;-81
2024/02/21 08:02:38;;;;;;;;;;;;;;;12.12;52.48;101776.47;4861964;29;19920;-83
2024/02/21 08:05:29;;;;;;;;;;;;;;;12.33;51.64;101774.19;4866351;29;20393;-82
2024/02/21 08:08:21;;;;;;;;;;;;;;;12.53;51.15;101776.56;4856417;29;19915;-81
2024/02/21 08:11:13;;;;;;;;;;;;;;;12.76;50.40;101783.72;4875379;29;19916;-81
2024/02/21 08:14:05;;;;;;;;;;;;;;;13.00;49.49;101786.25;4863398;29;19916;-82
2024/02/21 08:16:57;;;;;;;;;;;;;;;13.17;49.45;101791.09;4868372;29;19924;-82
2024/02/21 08:19:49;;;;;;;;;;;;;;;13.39;48.50;101798.53;4849188;29;19916;-82
2024/02/21 08:22:38;;;;;;;;;;;;;;;13.48;46.71;101794.78;4871517;29;19916;-80
2024/02/21 08:25:27;;;;;;;;;;;;;;;13.44;46.66;101791.03;4870923;29;19927;-81
2024/02/21 08:28:17;;;;;;;;;;;;;;;13.85;46.22;101792.81;4840453;29;20493;-82
2024/02/21 08:31:06;;;;;;;;;;;;;;;14.19;45.73;101789.50;4865254;29;19915;-81
2024/02/21 08:33:56;;;;;;;;;;;;;;;14.39;45.02;101789.81;4880887;29;19916;-82
2024/02/21 08:36:48;;;;;;;;;;;;;;;14.36;43.77;101776.75;4871064;29;19916;-82
2024/02/21 08:39:40;;;;;;;;;;;;;;;14.57;43.95;101768.81;4869414;29;19923;-81
2024/02/21 08:42:32;;;;;;;;;;;;;;;14.69;42.97;101770.91;4866750;29;20010;-82
2024/02/21 08:45:24;;;;;;;;;;;;;;;14.99;42.37;101776.34;4866634;29;19920;-81
2024/02/21 08:48:16;;;;;;;;;;;;;;;15.14;41.86;101775.06;4855399;29;19920;-81
2024/02/21 08:51:08;;;;;;;;;;;;;;;15.30;40.60;101770.75;4860534;29;20366;-81
2024/02/21 08:54:00;;;;;;;;;;;;;;;15.39;41.25;101771.56;4870989;29;19919;-83
2024/02/21 08:56:52;;;;;;;;;;;;;;;15.41;40.50;101773.97;4867876;29;19921;-84
2024/02/21 08:59:44;;;;;;;;;;;;;;;15.41;39.99;101769.31;4880935;29;20283;-81
2024/02/21 09:02:36;;;;;;;;;;;;;;;15.62;39.03;101771.44;4855929;29;19924;-82
2024/02/21 09:05:29;;;;;;;;;;;;;;;15.83;39.45;101761.41;4857798;29;19927;-81
2024/02/21 09:08:21;;;;;;;;;;;;;;;15.84;39.19;101760.28;4863921;29;19924;-83
2024/02/21 09:11:11;;;;;;;;;;;;;;;16.06;38.91;101765.56;4864308;29;20386;-84
2024/02/21 09:14:03;;;;;;;;;;;;;;;15.96;40.58;101771.38;4877192;29;20377;-83
2024/02/21 09:16:55;;;;;;;;;;;;;;;15.52;41.72;101764.34;4867770;29;20386;-82
2024/02/21 09:19:47;;;;;;;;;;;;;;;15.82;41.97;101765.28;4865279;29;19920;-82
2024/02/21 09:22:39;;;;;;;;;;;;;;;15.77;42.41;101758.03;4878941;29;20306;-82
2024/02/21 09:25:31;;;;;;;;;;;;;;;15.80;42.54;101771.09;4864865;29;19923;-83
2024/02/21 09:28:23;;;;;;;;;;;;;;;16.04;42.88;101762.34;4864665;29;19924;-83
2024/02/21 09:31:15;;;;;;;;;;;;;;;16.00;42.97;101771.56;4866301;29;19916;-82
2024/02/21 09:34:07;;;;;;;;;;;;;;;15.71;43.17;101769.50;4866802;29;19916;-82
2024/02/21 09:36:59;;;;;;;;;;;;;;;15.91;42.97;101757.84;4857023;29;19916;-82
2024/02/21 09:39:52;;;;;;;;;;;;;;;16.45;41.62;101752.69;4864981;29;19939;-81
2024/02/21 09:42:44;;;;;;;;;;;;;;;16.41;41.85;101751.72;4863681;29;19916;-81
2024/02/21 09:45:33;;;;;;;;;;;;;;;16.95;40.67;101764.59;4868796;29;19920;-82
2024/02/21 09:48:32;;;;;;;;;;;;;;;16.67;39.83;101757.94;4869975;29;19916;-82
2024/02/21 09:51:24;;;;;;;;;;;;;;;16.84;39.50;101760.59;4853296;29;19916;-82
2024/02/21 09:54:14;;;;;;;;;;;;;;;17.73;38.35;101761.25;4856190;29;19915;-83
2024/02/21 09:57:06;;;;;;;;;;;;;;;18.27;36.99;101759.25;4877049;29;20305;-83
2024/02/21 09:59:58;;;;;;;;;;;;;;;18.60;36.47;101761.94;4853405;29;20305;-82
2024/02/21 10:02:48;;;;;;;;;;;;;;;17.92;37.43;101759.63;4854296;29;19920;-84
2024/02/21 10:05:40;;;;;;;;;;;;;;;17.58;37.87;101759.91;4860072;29;19924;-82
2024/02/21 10:08:32;;;;;;;;;;;;;;;18.36;36.99;101752.50;4856008;29;19919;-79
2024/02/21 10:11:30;;;;;;;;;;;;;;;18.06;38.45;101758.53;4870727;29;19915;-83
2024/02/21 10:14:22;;;;;;;;;;;;;;;17.02;41.03;101742.88;4846469;29;19916;-82
2024/02/21 10:17:20;;;;;;;;;;;;;;;20.05;36.26;101745.06;4859702;29;19916;-83
2024/02/21 10:20:12;;;;;;;;;;;;;;;25.79;26.71;101758.50;4856717;29;20655;-82
2024/02/21 10:23:07;;;;;;;;;;;;;;;24.86;27.86;101748.06;4857404;29;20402;-82
2024/02/21 10:26:06;;;;;;;;;;;;;;;24.39;27.68;101760.81;4863222;29;20317;-82
2024/02/21 10:28:58;;;;;;;;;;;;;;;26.70;25.66;101768.19;4872712;29;20305;-82
2024/02/21 10:31:47;;;;;;;;;;;;;;;24.74;27.94;101759.53;4866025;29;20314;-82
2024/02/21 10:34:42;;;;;;;;;;;;;;;22.82;29.75;101756.47;4861026;29;19915;-83
2024/02/21 10:37:34;;;;;;;;;;;;;;;25.24;27.50;101760.66;4860748;29;19920;-82
2024/02/21 10:40:30;;;;;;;;;;;;;;;26.41;25.58;101767.41;4864488;29;19916;-82
2024/02/21 10:43:20;;;;;;;;;;;;;;;22.01;31.85;101753.09;4858155;29;19916;-82
2024/02/21 10:46:12;;;;;;;;;;;;;;;19.98;35.33;101753.13;4862277;29;19919;-82
2024/02/21 10:49:06;;;;;;;;;;;;;;;18.96;37.85;101752.88;4862563;29;20321;-82
2024/02/21 10:52:04;;;;;;;;;;;;;;;18.24;39.53;101752.47;4864818;29;20488;-83
2024/02/21 10:55:06;;;;;;;;;;;;;;;17.83;40.24;101739.63;4847900;29;19915;-82
2024/02/21 10:57:59;;;;;;;;;;;;;;;17.64;41.21;101739.34;4860734;29;19920;-82
2024/02/21 11:00:51;;;;;;;;;;;;;;;17.61;41.79;101734.53;4869834;29;19916;-82
2024/02/21 11:03:43;;;;;;;;;;;;;;;17.42;42.38;101731.44;4850464;29;19916;-82
2024/02/21 11:06:37;;;;;;;;;;;;;;;17.42;42.35;101720.44;4857222;29;19920;-83
2024/02/21 11:09:35;;;;;;;;;;;;;;;17.17;43.16;101715.94;4860337;29;19920;-82
2024/02/21 11:12:27;;;;;;;;;;;;;;;17.21;43.44;101703.94;4849445;29;20390;-82
2024/02/21 11:15:19;;;;;;;;;;;;;;;17.13;43.63;101690.25;4855015;29;19919;-82
2024/02/21 11:18:08;;;;;;;;;;;;;;;17.07;44.16;101684.97;4870245;29;19916;-85
2024/02/21 11:21:00;;;;;;;;;;;;;;;17.10;44.30;101687.06;4851332;29;19920;-81
2024/02/21 11:24:01;;;;;;;;;;;;;;;17.20;44.55;101682.28;4871808;29;19915;-82
2024/02/21 11:26:53;;;;;;;;;;;;;;;17.27;44.99;101683.34;4844594;29;20213;-81
2024/02/21 11:29:51;;;;;;;;;;;;;;;17.36;45.22;101666.78;4858674;29;19920;-81
2024/02/21 11:32:40;;;;;;;;;;;;;;;17.44;44.69;101663.94;4841869;29;19924;-82
2024/02/21 11:35:33;;;;;;;;;;;;;;;17.39;45.27;101658.66;4862813;29;19916;-81
2024/02/21 11:38:25;;;;;;;;;;;;;;;17.46;45.33;101653.41;4859895;29;20309;-82
2024/02/21 11:41:16;;;;;;;;;;;;;;;17.34;45.69;101655.31;4853957;29;19916;-82
2024/02/21 11:44:08;;;;;;;;;;;;;;;17.43;45.66;101658.78;4864307;29;19916;-81
2024/02/21 11:47:00;;;;;;;;;;;;;;;17.41;46.25;101655.56;4861151;29;19927;-82
2024/02/21 11:49:53;;;;;;;;;;;;;;;17.32;46.46;101644.63;4867892;29;19916;-81
2024/02/21 11:52:51;;;;;;;;;;;;;;;17.53;46.34;101636.34;4880644;29;19924;-81
2024/02/21 11:55:43;;;;;;;;;;;;;;;17.56;45.59;101635.69;4880391;29;19915;-81
2024/02/21 11:58:35;;;;;;;;;;;;;;;17.62;45.59;101628.88;4866277;29;20389;-81
2024/02/21 12:01:27;;;;;;;;;;;;;;;17.66;45.73;101620.72;4880328;29;19916;-81
2024/02/21 12:04:19;;;;;;;;;;;;;;;17.77;45.61;101622.69;4867569;29;19916;-81
2024/02/21 12:07:11;;;;;;;;;;;;;;;17.78;45.77;101615.22;4879766;29;19931;-83
2024/02/21 12:10:08;;;;;;;;;;;;;;;17.70;46.10;101616.94;4856566;29;19916;-81
2024/02/21 12:13:12;;;;;;;;;;;;;;;17.82;45.76;101611.47;4866377;29;19915;-81
2024/02/21 12:16:04;;;;;;;;;;;;;;;17.96;45.46;101611.13;4870504;29;19920;-82
2024/02/21 12:18:56;;;;;;;;;;;;;;;18.03;45.94;101602.31;4863075;29;19916;-82
2024/02/21 12:21:50;;;;;;;;;;;;;;;18.17;45.45;101595.31;4869431;29;19915;-81
2024/02/21 12:24:46;;;;;;;;;;;;;;;18.18;45.67;101591.41;4874164;29;19920;-81
2024/02/21 12:27:38;;;;;;;;;;;;;;;18.26;45.67;101564.91;4857430;29;19920;-81
2024/02/21 12:30:30;;;;;;;;;;;;;;;18.38;45.55;101568.44;4858339;29;19934;-82
2024/02/21 12:33:20;;;;;;;;;;;;;;;18.24;46.11;101567.19;4867130;29;19920;-82
2024/02/21 12:36:12;;;;;;;;;;;;;;;18.35;45.81;101562.81;4862329;29;19919;-83
2024/02/21 12:39:04;;;;;;;;;;;;;;;18.37;46.02;101557.78;4870414;29;19915;-83
2024/02/21 12:41:56;;;;;;;;;;;;;;;18.29;46.12;101556.75;4873868;29;19915;-84
2024/02/21 12:44:48;;;;;;;;;;;;;;;18.39;46.08;101552.69;4872984;29;19916;-83
2024/02/21 12:47:40;;;;;;;;;;;;;;;18.55;45.73;101550.84;4868708;29;19923;-83
2024/02/21 12:50:30;;;;;;;;;;;;;;;18.41;45.29;101533.88;4859933;29;19916;-83
2024/02/21 12:53:22;;;;;;;;;;;;;;;18.52;44.96;101540.53;4871066;29;19915;-83
2024/02/21 12:56:15;;;;;;;;;;;;;;;18.59;44.30;101543.50;4856006;29;19924;-83
2024/02/21 12:59:07;;;;;;;;;;;;;;;18.67;44.26;101528.78;4878279;29;19915;-83
2024/02/21 13:01:59;;;;;;;;;;;;;;;18.64;44.05;101532.22;4851539;29;19915;-83
2024/02/21 13:04:51;;;;;;;;;;;;;;;18.62;43.61;101529.03;4854683;29;19920;-83
2024/02/21 13:07:43;;;;;;;;;;;;;;;18.57;42.22;101512.75;4869748;29;19919;-82
2024/02/21 13:10:35;;;;;;;;;;;;;;;18.57;41.62;101507.25;4873298;29;19915;-84
2024/02/21 13:13:24;;;;;;;;;;;;;;;18.71;41.23;101509.59;4875201;29;19916;-83
2024/02/21 13:16:16;;;;;;;;;;;;;;;18.58;41.06;101502.53;4864685;29;19923;-82
2024/02/21 13:19:08;;;;;;;;;;;;;;;18.67;41.52;101492.97;4873774;29;19915;-82
2024/02/21 13:22:00;;;;;;;;;;;;;;;18.76;42.14;101498.31;4863345;29;19920;-83
2024/02/21 13:24:53;;;;;;;;;;;;;;;18.73;42.39;101480.56;4868501;29;20309;-82
2024/02/21 13:27:45;;;;;;;;;;;;;;;18.88;42.60;101478.19;4865882;29;19924;-82
2024/02/21 13:30:38;;;;;;;;;;;;;;;18.80;42.58;101469.72;4848538;29;19920;-82
2024/02/21 13:33:30;;;;;;;;;;;;;;;18.66;42.04;101461.06;4844364;29;19916;-83
2024/02/21 13:36:22;;;;;;;;;;;;;;;18.78;41.68;101450.00;4860698;29;20570;-83
2024/02/21 13:39:15;;;;;;;;;;;;;;;18.80;41.17;101447.66;4846905;29;19916;-85
2024/02/21 13:42:04;;;;;;;;;;;;;;;18.55;41.01;101440.66;4867301;29;20385;-84
2024/02/21 13:44:57;;;;;;;;;;;;;;;18.49;40.43;101450.31;4857061;29;20301;-85
2024/02/21 13:47:49;;;;;;;;;;;;;;;18.60;40.80;101439.63;4849154;29;19923;-83
2024/02/21 13:50:43;;;;;;;;;;;;;;;18.74;41.48;101432.53;4842487;29;19919;-83
2024/02/21 13:53:35;;;;;;;;;;;;;;;18.83;40.67;101429.63;4856925;29;19924;-83
2024/02/21 13:56:24;;;;;;;;;;;;;;;18.63;40.38;101431.47;4860745;29;19916;-84
2024/02/21 13:59:16;;;;;;;;;;;;;;;18.61;40.58;101436.53;4856612;29;19920;-84
2024/02/21 14:02:09;;;;;;;;;;;;;;;18.47;40.37;101425.09;4855049;29;19917;-84
2024/02/21 14:05:01;;;;;;;;;;;;;;;18.56;40.21;101423.00;4854161;29;19920;-85
2024/02/21 14:07:53;;;;;;;;;;;;;;;18.55;40.32;101413.13;4852527;29;19925;-85
2024/02/21 14:10:45;;;;;;;;;;;;;;;18.59;39.82;101408.50;4841635;29;19925;-82
2024/02/21 14:13:37;;;;;;;;;;;;;;;18.66;40.42;101410.66;4861158;29;19916;-84
2024/02/21 14:16:29;;;;;;;;;;;;;;;18.73;40.80;101408.91;4851505;29;19920;-83
2024/02/21 14:19:19;;;;;;;;;;;;;;;18.51;40.48;101403.13;4838625;29;19920;-85
2024/02/21 14:22:11;;;;;;;;;;;;;;;18.40;41.17;101400.09;4847830;29;19919;-84
2024/02/21 14:25:03;;;;;;;;;;;;;;;18.62;41.16;101396.81;4849604;29;19916;-83
2024/02/21 14:27:55;;;;;;;;;;;;;;;18.55;40.42;101398.56;4842072;29;19924;-83
2024/02/21 14:30:47;;;;;;;;;;;;;;;18.45;41.07;101391.56;4860084;29;20320;-85
2024/02/21 14:33:39;;;;;;;;;;;;;;;18.29;41.34;101391.53;4853929;29;19916;-87
2024/02/21 14:36:31;;;;;;;;;;;;;;;18.47;41.15;101388.47;4857865;29;19920;-85
2024/02/21 14:39:23;;;;;;;;;;;;;;;18.45;41.08;101386.06;4850535;29;19916;-84
2024/02/21 14:42:15;;;;;;;;;;;;;;;18.45;41.47;101377.00;4848253;29;20306;-84
2024/02/21 14:45:09;;;;;;;;;;;;;;;18.50;42.41;101374.78;4859034;29;19917;-84
2024/02/21 14:48:01;;;;;;;;;;;;;;;18.28;42.22;101376.19;4851398;29;19928;-82
2024/02/21 14:50:53;;;;;;;;;;;;;;;18.19;41.61;101366.44;4836366;29;19916;-82
2024/02/21 14:53:44;;;;;;;;;;;;;;;18.30;41.87;101362.03;4844486;29;20310;-82
2024/02/21 14:56:39;;;;;;;;;;;;;;;18.28;41.81;101362.41;4838521;29;20481;-82
2024/02/21 14:59:31;;;;;;;;;;;;;;;18.23;41.90;101361.84;4859780;29;20386;-83
2024/02/21 15:02:20;;;;;;;;;;;;;;;18.19;42.03;101349.94;4850662;29;20333;-83
2024/02/21 15:05:10;;;;;;;;;;;;;;;18.23;41.67;101342.59;4846349;29;19916;-83
2024/02/21 15:08:10;;;;;;;;;;;;;;;18.20;41.39;101335.81;4844597;29;19920;-83